createdAt,value
2018-05-27T00:01:32.993Z,6.60
2018-05-27T00:04:00.260Z,6.13
2018-05-27T00:06:26.589Z,6.17
2018-05-27T00:08:52.976Z,6.77
2018-05-27T00:11:20.287Z,6.83
2018-05-27T00:13:46.643Z,7.07
2018-05-27T00:16:14.021Z,6.60
2018-05-27T00:18:41.267Z,6.70
2018-05-27T00:21:09.281Z,6.67
2018-05-27T00:23:39.123Z,6.93
2018-05-27T00:26:06.203Z,6.73
2018-05-27T00:28:33.332Z,6.70
2018-05-27T00:31:00.619Z,6.73
2018-05-27T00:33:27.835Z,6.70
2018-05-27T00:35:54.737Z,7.37
2018-05-27T00:38:22.141Z,6.90
2018-05-27T00:40:49.941Z,6.73
2018-05-27T00:43:16.285Z,7.03
2018-05-27T00:45:42.785Z,7.43
2018-05-27T00:48:09.867Z,7.40
2018-05-27T00:50:36.242Z,6.83
2018-05-27T00:53:06.272Z,7.40
2018-05-27T00:55:33.111Z,7.47
2018-05-27T00:57:59.444Z,6.53
2018-05-27T01:00:26.620Z,7.43
2018-05-27T01:02:53.716Z,7.60
2018-05-27T01:05:20.073Z,7.40
2018-05-27T01:07:46.411Z,7.63
2018-05-27T01:10:12.827Z,7.87
2018-05-27T01:12:39.265Z,7.60
2018-05-27T01:15:05.650Z,7.10
2018-05-27T01:17:34.314Z,7.50
2018-05-27T01:20:00.707Z,7.30
2018-05-27T01:22:28.192Z,7.33
2018-05-27T01:24:54.611Z,7.50
2018-05-27T01:27:20.958Z,7.23
2018-05-27T01:29:47.363Z,7.33
2018-05-27T01:32:13.718Z,7.60
2018-05-27T01:34:40.059Z,7.10
2018-05-27T01:37:06.416Z,7.80
2018-05-27T01:39:32.764Z,7.57
2018-05-27T01:41:59.423Z,6.73
2018-05-27T01:44:25.781Z,7.50
2018-05-27T01:46:52.149Z,7.60
2018-05-27T01:49:18.504Z,7.80
2018-05-27T01:51:44.916Z,7.33
2018-05-27T02:03:57.209Z,8.00
2018-05-27T02:06:27.035Z,7.67
2018-05-27T02:08:53.386Z,7.33
2018-05-27T02:11:19.726Z,8.50
2018-05-27T02:13:46.152Z,7.80
2018-05-27T02:16:13.330Z,8.80
2018-05-27T02:18:40.623Z,7.83
2018-05-27T02:21:08.003Z,8.37
2018-05-27T02:23:35.845Z,8.40
2018-05-27T02:26:02.277Z,8.70
2018-05-27T02:28:28.621Z,8.83
2018-05-27T02:30:55.043Z,8.80
2018-05-27T02:33:21.449Z,8.87
2018-05-27T02:35:48.759Z,8.33
2018-05-27T02:38:16.027Z,9.03
2018-05-27T02:40:42.488Z,9.10
2018-05-27T02:43:08.926Z,8.67
2018-05-27T02:45:36.035Z,9.40
2018-05-27T02:48:03.023Z,9.10
2018-05-27T02:50:29.391Z,9.27
2018-05-27T02:52:55.747Z,10.00
2018-05-27T02:55:22.205Z,8.90
2018-05-27T02:57:51.673Z,9.60
2018-05-27T03:00:18.885Z,9.80
2018-05-27T03:02:45.697Z,9.80
2018-05-27T03:05:12.814Z,9.67
2018-05-27T03:07:39.735Z,9.60
2018-05-27T03:10:06.095Z,9.67
2018-05-27T03:12:32.455Z,9.77
2018-05-27T03:15:00.311Z,10.30
2018-05-27T03:17:27.380Z,10.20
2018-05-27T03:19:54.479Z,10.07
2018-05-27T03:22:21.747Z,10.17
2018-05-27T03:24:49.721Z,11.40
2018-05-27T03:27:20.493Z,10.30
2018-05-27T03:29:47.634Z,10.43
2018-05-27T03:32:14.163Z,10.37
2018-05-27T03:34:41.264Z,10.80
2018-05-27T03:37:10.774Z,10.57
2018-05-27T03:39:37.195Z,11.07
2018-05-27T03:42:04.839Z,10.43
2018-05-27T03:44:31.210Z,10.27
2018-05-27T03:46:57.560Z,10.03
2018-05-27T03:49:23.918Z,10.47
2018-05-27T03:51:51.011Z,10.27
2018-05-27T03:54:17.338Z,10.97
2018-05-27T03:56:43.677Z,10.70
2018-05-27T03:59:10.065Z,11.63
2018-05-27T04:01:37.239Z,11.47
2018-05-27T04:04:16.546Z,12.37
2018-05-27T04:06:55.020Z,11.57
2018-05-27T04:09:21.344Z,11.27
2018-05-27T04:11:48.543Z,12.33
2018-05-27T04:14:14.871Z,11.57
2018-05-27T04:16:43.455Z,12.23
2018-05-27T04:19:10.299Z,12.33
2018-05-27T04:21:36.620Z,13.17
2018-05-27T04:24:03.749Z,13.03
2018-05-27T04:26:30.081Z,12.83
2018-05-27T04:28:57.438Z,12.70
2018-05-27T04:31:23.795Z,13.33
2018-05-27T04:33:51.564Z,13.10
2018-05-27T04:36:17.926Z,14.43
2018-05-27T04:38:44.260Z,13.20
2018-05-27T04:41:10.579Z,14.27
2018-05-27T04:43:36.924Z,12.83
2018-05-27T04:46:03.234Z,13.70
2018-05-27T04:48:30.299Z,14.53
2018-05-27T04:50:56.588Z,14.10
2018-05-27T04:53:23.154Z,14.60
2018-05-27T04:55:49.452Z,14.37
2018-05-27T04:58:15.758Z,13.80
2018-05-27T05:00:42.058Z,13.03
2018-05-27T05:03:09.174Z,13.23
2018-05-27T05:05:36.492Z,13.50
2018-05-27T05:08:02.822Z,13.87
2018-05-27T05:10:29.645Z,13.83
2018-05-27T05:12:56.092Z,13.37
2018-05-27T05:15:22.480Z,13.77
2018-05-27T05:17:49.524Z,13.80
2018-05-27T05:20:16.569Z,13.33
2018-05-27T05:22:43.848Z,13.40
2018-05-27T05:25:10.165Z,12.63
2018-05-27T05:27:36.455Z,13.27
2018-05-27T05:30:02.774Z,12.80
2018-05-27T05:32:29.080Z,13.40
2018-05-27T05:34:55.422Z,12.57
2018-05-27T05:37:21.742Z,12.10
2018-05-27T05:39:48.017Z,12.07
2018-05-27T05:42:14.301Z,12.53
2018-05-27T05:44:40.642Z,11.70
2018-05-27T05:47:06.914Z,12.53
2018-05-27T05:49:33.311Z,12.00
2018-05-27T05:51:59.574Z,12.60
2018-05-27T05:54:26.216Z,12.10
2018-05-27T05:56:53.334Z,11.63
2018-05-27T05:59:19.621Z,12.23
2018-05-27T06:01:46.019Z,12.70
2018-05-27T06:04:12.331Z,11.83
2018-05-27T06:06:38.599Z,11.57
2018-05-27T06:09:06.703Z,12.10
2018-05-27T06:11:33.282Z,12.13
2018-05-27T06:13:59.682Z,11.37
2018-05-27T06:16:26.039Z,12.03
2018-05-27T06:18:52.353Z,10.97
2018-05-27T06:21:18.620Z,11.47
2018-05-27T06:23:44.899Z,11.07
2018-05-27T06:26:11.217Z,11.23
2018-05-27T06:28:37.506Z,10.87
2018-05-27T06:31:03.837Z,10.53
2018-05-27T06:33:30.253Z,11.83
2018-05-27T06:35:56.544Z,10.70
2018-05-27T06:38:22.837Z,10.87
2018-05-27T06:40:49.177Z,9.67
2018-05-27T06:43:16.245Z,9.97
2018-05-27T06:45:42.515Z,10.03
2018-05-27T06:48:08.881Z,9.57
2018-05-27T06:50:35.205Z,9.17
2018-05-27T06:53:02.233Z,9.23
2018-05-27T06:55:28.796Z,8.70
2018-05-27T07:00:35.853Z,8.97
2018-05-27T07:03:02.137Z,8.23
2018-05-27T07:05:28.648Z,8.30
2018-05-27T07:07:55.735Z,8.10
2018-05-27T07:10:22.788Z,8.07
2018-05-27T07:12:49.055Z,7.53
2018-05-27T07:15:15.374Z,7.67
2018-05-27T07:17:41.664Z,7.70
2018-05-27T07:20:10.053Z,7.10
2018-05-27T07:22:37.080Z,6.53
2018-05-27T07:25:04.115Z,7.23
2018-05-27T07:27:30.448Z,6.10
2018-05-27T07:29:56.786Z,6.37
2018-05-27T07:32:23.095Z,6.60
2018-05-27T07:34:49.386Z,6.10
2018-05-27T07:37:15.684Z,5.63
2018-05-27T07:39:43.464Z,5.60
2018-05-27T07:42:09.748Z,5.73
2018-05-27T07:44:36.131Z,5.77
2018-05-27T07:47:02.454Z,5.57
2018-05-27T07:49:29.524Z,5.40
2018-05-27T07:51:56.376Z,5.33
2018-05-27T07:54:22.748Z,5.70
2018-05-27T07:56:50.086Z,5.87
2018-05-27T07:59:17.130Z,5.93
2018-05-27T08:01:43.464Z,5.43
2018-05-27T08:04:10.597Z,5.00
2018-05-27T08:06:37.027Z,5.70
2018-05-27T08:09:03.386Z,5.23
2018-05-27T08:11:29.689Z,5.30
2018-05-27T08:13:55.967Z,5.03
2018-05-27T08:16:22.406Z,5.83
2018-05-27T08:28:34.847Z,5.70
2018-05-27T08:31:02.068Z,5.77
2018-05-27T08:33:28.364Z,5.20
2018-05-27T08:35:54.696Z,5.87
2018-05-27T08:38:21.011Z,6.00
2018-05-27T08:40:49.695Z,5.33
2018-05-27T08:43:15.979Z,5.80
2018-05-27T08:45:42.639Z,5.67
2018-05-27T08:48:09.288Z,5.80
2018-05-27T08:50:35.595Z,5.73
2018-05-27T08:53:01.880Z,6.10
2018-05-27T08:55:28.164Z,6.07
2018-05-27T08:57:54.463Z,6.80
2018-05-27T09:00:20.825Z,6.87
2018-05-27T09:02:47.117Z,6.50
2018-05-27T09:05:13.435Z,6.63
2018-05-27T09:07:40.488Z,7.57
2018-05-27T09:10:07.520Z,6.63
2018-05-27T09:12:34.461Z,6.63
2018-05-27T09:15:00.767Z,6.27
2018-05-27T09:17:27.112Z,6.40
2018-05-27T09:19:53.450Z,6.47
2018-05-27T09:22:20.549Z,7.27
2018-05-27T09:24:46.879Z,6.27
2018-05-27T09:27:13.681Z,6.50
2018-05-27T09:29:40.043Z,6.57
2018-05-27T09:32:08.387Z,6.27
2018-05-27T09:34:34.680Z,6.47
2018-05-27T09:37:00.988Z,6.20
2018-05-27T09:39:27.266Z,6.37
2018-05-27T09:41:53.573Z,7.23
2018-05-27T09:44:19.853Z,6.57
2018-05-27T09:46:46.152Z,6.20
2018-05-27T09:49:12.457Z,6.30
2018-05-27T09:51:38.736Z,6.83
2018-05-27T09:54:05.050Z,6.50
2018-05-27T09:56:31.363Z,6.20
2018-05-27T09:58:57.691Z,6.20
2018-05-27T10:01:23.990Z,5.40
2018-05-27T10:03:51.055Z,5.57
2018-05-27T10:06:17.355Z,5.37
2018-05-27T10:08:44.382Z,5.07
2018-05-27T10:11:10.708Z,5.07
2018-05-27T10:13:37.004Z,5.20
2018-05-27T10:16:03.315Z,5.17
2018-05-27T10:18:29.632Z,5.23
2018-05-27T10:20:56.684Z,5.43
2018-05-27T10:23:22.960Z,5.17
2018-05-27T10:25:49.273Z,5.20
2018-05-27T10:28:19.701Z,4.57
2018-05-27T10:30:46.025Z,4.70
2018-05-27T10:33:12.302Z,4.83
2018-05-27T10:35:38.606Z,4.73
2018-05-27T10:38:04.894Z,4.60
2018-05-27T10:40:31.914Z,4.80
2018-05-27T10:42:58.207Z,5.07
2018-05-27T10:45:24.499Z,5.17
2018-05-27T10:47:51.527Z,4.40
2018-05-27T10:50:17.808Z,4.70
2018-05-27T10:52:44.104Z,5.30
2018-05-27T10:55:10.420Z,4.60
2018-05-27T10:57:37.462Z,4.70
2018-05-27T11:00:03.756Z,4.80
2018-05-27T11:02:30.063Z,4.83
2018-05-27T11:04:57.102Z,4.90
2018-05-27T11:07:24.117Z,4.60
2018-05-27T11:09:50.408Z,4.63
2018-05-27T11:12:16.779Z,4.60
2018-05-27T11:14:43.034Z,4.73
2018-05-27T11:17:10.067Z,4.40
2018-05-27T11:19:37.104Z,4.30
2018-05-27T11:22:03.438Z,4.80
2018-05-27T11:24:29.716Z,4.10
2018-05-27T11:26:56.020Z,4.27
2018-05-27T11:29:23.066Z,3.93
2018-05-27T11:31:50.122Z,4.03
2018-05-27T11:34:17.145Z,3.80
2018-05-27T11:36:43.429Z,4.13
2018-05-27T11:39:09.717Z,4.33
2018-05-27T11:41:36.778Z,3.97
2018-05-27T11:44:03.803Z,3.37
2018-05-27T11:46:30.083Z,3.87
2018-05-27T11:48:56.373Z,4.20
2018-05-27T11:51:23.416Z,3.83
2018-05-27T11:53:50.435Z,3.97
2018-05-27T11:56:16.728Z,4.10
2018-05-27T11:58:43.020Z,4.97
2018-05-27T12:01:09.323Z,3.90
2018-05-27T12:03:35.622Z,3.93
2018-05-27T12:06:01.902Z,4.27
2018-05-27T12:08:28.215Z,4.33
2018-05-27T12:20:34.543Z,4.20
2018-05-27T12:23:00.848Z,4.20
2018-05-27T12:25:27.137Z,4.00
2018-05-27T12:27:53.534Z,4.33
2018-05-27T12:40:04.853Z,4.27
2018-05-27T12:42:31.125Z,4.07
2018-05-27T12:44:57.404Z,4.50
2018-05-27T12:47:23.778Z,4.23
2018-05-27T12:49:50.081Z,4.67
2018-05-27T12:52:16.358Z,4.83
2018-05-27T12:54:42.644Z,4.70
2018-05-27T12:57:08.974Z,5.10
2018-05-27T12:59:35.255Z,4.60
2018-05-27T13:02:01.564Z,4.87
2018-05-27T13:04:27.852Z,4.67
2018-05-27T13:06:54.176Z,5.10
2018-05-27T13:09:21.225Z,5.20
2018-05-27T13:11:47.501Z,5.27
2018-05-27T13:14:13.772Z,4.97
2018-05-27T13:16:40.900Z,4.73
2018-05-27T13:19:07.098Z,5.60
2018-05-27T13:21:33.377Z,5.13
2018-05-27T13:23:59.696Z,4.67
2018-05-27T13:26:25.979Z,5.30
2018-05-27T13:28:52.245Z,5.13
2018-05-27T13:31:18.539Z,4.87
2018-05-27T13:33:44.826Z,5.00
2018-05-27T13:36:12.879Z,5.13
2018-05-27T13:38:39.369Z,4.80
2018-05-27T13:41:05.665Z,4.93
2018-05-27T13:43:31.950Z,4.70
2018-05-27T13:45:58.231Z,4.37
2018-05-27T13:48:27.395Z,5.90
2018-05-27T13:50:53.657Z,4.73
2018-05-27T13:53:20.770Z,5.97
2018-05-27T13:55:47.070Z,4.60
2018-05-27T13:58:13.372Z,3.90
2018-05-27T14:00:39.663Z,4.43
2018-05-27T14:03:05.934Z,3.70
2018-05-27T14:05:32.965Z,17.37
2018-05-27T14:07:59.994Z,18.17
2018-05-27T14:10:26.331Z,3.77
2018-05-27T14:12:52.587Z,3.77
2018-05-27T14:15:18.873Z,3.70
2018-05-27T14:17:45.911Z,3.87
2018-05-27T14:20:12.191Z,3.80
2018-05-27T14:22:38.484Z,3.87
2018-05-27T14:25:04.840Z,4.30
2018-05-27T14:27:31.140Z,4.13
2018-05-27T14:29:57.425Z,6.93
2018-05-27T14:32:23.689Z,3.73
2018-05-27T14:34:49.980Z,4.40
2018-05-27T14:37:17.016Z,4.10
2018-05-27T14:39:44.484Z,4.30
2018-05-27T14:42:10.762Z,6.40
2018-05-27T14:44:37.041Z,5.13
2018-05-27T14:47:03.334Z,4.90
2018-05-27T14:49:29.613Z,5.23
2018-05-27T14:51:56.631Z,11.00
2018-05-27T14:54:22.907Z,8.57
2018-05-27T14:56:49.187Z,4.67
2018-05-27T14:59:15.507Z,12.03
2018-05-27T15:01:41.795Z,4.57
2018-05-27T15:04:08.128Z,4.60
2018-05-27T15:06:34.397Z,5.03
2018-05-27T15:09:00.678Z,4.63
2018-05-27T15:11:26.955Z,7.37
2018-05-27T15:13:53.255Z,41.67
2018-05-27T15:16:19.553Z,7.93
2018-05-27T15:18:46.572Z,4.20
2018-05-27T15:21:12.848Z,3.77
2018-05-27T15:23:39.136Z,3.90
2018-05-27T15:26:05.455Z,3.97
2018-05-27T15:28:31.772Z,4.00
2018-05-27T15:30:58.053Z,6.53
2018-05-27T15:33:24.331Z,4.23
2018-05-27T15:35:50.640Z,4.00
2018-05-27T15:38:16.935Z,4.47
2018-05-27T15:40:44.073Z,4.27
2018-05-27T15:43:10.381Z,4.70
2018-05-27T15:45:36.660Z,7.63
2018-05-27T15:48:02.958Z,7.37
2018-05-27T15:50:29.250Z,8.50
2018-05-27T15:52:55.544Z,4.53
2018-05-27T15:55:22.569Z,4.50
2018-05-27T15:57:48.876Z,5.47
2018-05-27T16:00:15.155Z,4.53
2018-05-27T16:02:42.187Z,4.00
2018-05-27T16:05:09.232Z,4.00
2018-05-27T16:07:35.499Z,4.20
2018-05-27T16:10:01.822Z,4.03
2018-05-27T16:12:28.113Z,3.90
2018-05-27T16:14:54.420Z,20.00
2018-05-27T16:17:20.714Z,4.27
2018-05-27T16:19:47.011Z,3.63
2018-05-27T16:22:14.052Z,3.60
2018-05-27T16:24:40.349Z,3.77
2018-05-27T16:27:06.667Z,4.00
2018-05-27T16:29:32.941Z,3.83
2018-05-27T16:31:59.217Z,3.97
2018-05-27T16:34:25.552Z,4.10
2018-05-27T16:36:52.574Z,4.10
2018-05-27T16:39:19.604Z,3.87
2018-05-27T16:41:46.830Z,3.73
2018-05-27T16:44:13.108Z,3.50
2018-05-27T16:46:40.182Z,3.87
2018-05-27T16:49:07.184Z,3.23
2018-05-27T16:51:33.468Z,3.50
2018-05-27T16:53:59.731Z,3.63
2018-05-27T16:56:26.024Z,3.93
2018-05-27T16:58:52.327Z,3.70
2018-05-27T17:01:19.349Z,6.67
2018-05-27T17:03:45.629Z,5.37
2018-05-27T17:06:11.927Z,3.77
2018-05-27T17:08:38.958Z,4.33
2018-05-27T17:11:05.293Z,3.70
2018-05-27T17:13:31.575Z,3.63
2018-05-27T17:15:57.843Z,3.80
2018-05-27T17:18:24.131Z,3.20
2018-05-27T17:20:50.453Z,3.37
2018-05-27T17:23:16.859Z,3.60
2018-05-27T17:25:43.138Z,3.93
2018-05-27T17:28:09.473Z,4.00
2018-05-27T17:30:35.739Z,3.70
2018-05-27T17:33:02.065Z,3.83
2018-05-27T17:35:28.345Z,3.67
2018-05-27T17:37:55.723Z,3.10
2018-05-27T17:40:22.022Z,3.90
2018-05-27T17:42:48.597Z,3.70
2018-05-27T17:45:14.896Z,4.07
2018-05-27T17:47:41.247Z,3.27
2018-05-27T17:50:07.548Z,3.30
2018-05-27T17:52:33.836Z,3.40
2018-05-27T17:55:00.121Z,3.37
2018-05-27T17:57:26.462Z,3.70
2018-05-27T17:59:52.760Z,3.70
2018-05-27T18:02:19.826Z,3.83
2018-05-27T18:04:46.105Z,3.40
2018-05-27T18:07:12.397Z,3.57
2018-05-27T18:09:38.707Z,3.53
2018-05-27T18:12:05.031Z,3.80
2018-05-27T18:14:32.076Z,3.80
2018-05-27T18:16:59.162Z,4.00
2018-05-27T18:19:25.928Z,4.47
2018-05-27T18:21:52.218Z,4.20
2018-05-27T18:24:18.529Z,4.10
2018-05-27T18:26:44.854Z,4.53
2018-05-27T18:29:11.903Z,4.17
2018-05-27T18:31:38.964Z,4.43
2018-05-27T18:34:05.250Z,4.50
2018-05-27T18:36:31.528Z,4.67
2018-05-27T18:38:57.848Z,4.13
2018-05-27T18:41:24.919Z,4.50
2018-05-27T18:43:51.555Z,4.80
2018-05-27T18:46:17.835Z,4.17
2018-05-27T18:48:44.142Z,4.40
2018-05-27T18:51:10.419Z,4.57
2018-05-27T18:53:37.437Z,4.83
2018-05-27T18:56:03.740Z,5.10
2018-05-27T18:58:30.223Z,4.93
2018-05-27T19:00:57.275Z,5.40
2018-05-27T19:03:24.317Z,5.20
2018-05-27T19:05:50.624Z,5.77
2018-05-27T19:08:16.911Z,6.67
2018-05-27T19:10:43.211Z,6.47
2018-05-27T19:13:09.540Z,5.73
2018-05-27T19:15:35.837Z,6.50
2018-05-27T19:18:02.153Z,6.30
2018-05-27T19:20:28.457Z,7.13
2018-05-27T19:22:54.923Z,6.73
2018-05-27T19:25:21.194Z,7.20
2018-05-27T19:27:47.508Z,6.83
2018-05-27T19:30:13.845Z,6.80
2018-05-27T19:32:40.123Z,6.77
2018-05-27T19:35:06.439Z,6.90
2018-05-27T19:37:33.503Z,7.07
2018-05-27T19:39:59.799Z,6.90
2018-05-27T19:42:26.154Z,6.73
2018-05-27T19:44:52.409Z,7.00
2018-05-27T19:47:18.736Z,6.97
2018-05-27T19:49:45.025Z,7.43
2018-05-27T19:52:11.633Z,7.53
2018-05-27T19:54:37.959Z,7.23
2018-05-27T19:57:11.991Z,7.57
2018-05-27T19:59:38.300Z,7.77
2018-05-27T20:02:04.624Z,7.90
2018-05-27T20:04:30.956Z,6.97
2018-05-27T20:06:57.308Z,7.50
2018-05-27T20:09:23.616Z,7.67
2018-05-27T20:11:49.981Z,8.03
2018-05-27T20:14:16.289Z,7.67
2018-05-27T20:16:42.593Z,7.40
2018-05-27T20:19:08.897Z,7.67
2018-05-27T20:21:35.221Z,8.10
2018-05-27T20:24:02.279Z,8.63
2018-05-27T20:26:29.006Z,7.97
2018-05-27T20:28:55.359Z,8.13
2018-05-27T20:31:21.684Z,8.67
2018-05-27T20:33:48.254Z,8.23
2018-05-27T20:36:14.767Z,8.67
2018-05-27T20:38:41.133Z,8.30
2018-05-27T20:41:07.498Z,8.53
2018-05-27T20:43:34.662Z,8.40
2018-05-27T20:46:02.737Z,8.23
2018-05-27T20:48:29.748Z,8.13
2018-05-27T20:50:56.064Z,8.53
2018-05-27T20:53:22.372Z,8.27
2018-05-27T20:55:48.656Z,8.40
2018-05-27T20:58:15.714Z,8.70
2018-05-27T21:00:42.722Z,8.50
2018-05-27T21:03:09.002Z,8.37
2018-05-27T21:05:36.049Z,8.70
2018-05-27T21:08:02.368Z,8.80
2018-05-27T21:10:29.419Z,9.00
2018-05-27T21:12:56.471Z,9.20
2018-05-27T21:15:23.510Z,9.87
2018-05-27T21:17:50.574Z,8.97
2018-05-27T21:20:16.880Z,9.17
2018-05-27T21:22:43.170Z,9.77
2018-05-27T21:25:09.464Z,9.23
2018-05-27T21:27:36.519Z,9.70
2018-05-27T21:30:02.871Z,9.93
2018-05-27T21:32:29.218Z,10.03
2018-05-27T21:34:55.522Z,9.47
2018-05-27T21:37:21.838Z,9.20
2018-05-27T21:39:48.856Z,10.00
2018-05-27T21:42:15.232Z,9.93
2018-05-27T21:44:41.514Z,10.07
2018-05-27T21:47:07.808Z,9.47
2018-05-27T21:49:34.078Z,10.10
2018-05-27T21:52:00.438Z,10.20
2018-05-27T21:54:27.469Z,10.33
2018-05-27T21:56:53.757Z,9.90
2018-05-27T21:59:20.074Z,9.30
2018-05-27T22:01:46.364Z,9.53
2018-05-27T22:04:13.392Z,8.77
2018-05-27T22:06:39.710Z,10.13
2018-05-27T22:09:06.066Z,10.93
2018-05-27T22:11:32.400Z,9.70
2018-05-27T22:13:58.696Z,10.20
2018-05-27T22:16:25.029Z,10.60
2018-05-27T22:18:51.361Z,10.73
2018-05-27T22:21:17.664Z,10.53
2018-05-27T22:23:43.966Z,11.40
2018-05-27T22:26:10.246Z,11.90
2018-05-27T22:28:36.556Z,12.23
2018-05-27T22:31:02.869Z,12.50
2018-05-27T22:33:29.932Z,12.67
2018-05-27T22:35:56.212Z,13.67
2018-05-27T22:38:22.530Z,13.77
2018-05-27T22:40:48.848Z,14.30
2018-05-27T22:43:15.144Z,13.30
2018-05-27T22:45:42.174Z,14.67
2018-05-27T22:48:09.226Z,14.27
2018-05-27T22:50:36.266Z,14.37
2018-05-27T22:53:03.338Z,14.80
2018-05-27T22:55:29.637Z,15.20
2018-05-27T22:57:55.930Z,15.03
2018-05-27T23:00:22.242Z,16.30
2018-05-27T23:02:48.556Z,16.10
2018-05-27T23:05:14.844Z,16.53
2018-05-27T23:07:44.220Z,18.13
2018-05-27T23:33:12.531Z,18.30
2018-05-27T23:35:38.858Z,19.27
2018-05-27T23:38:05.139Z,17.73
2018-05-27T23:40:31.437Z,18.70
2018-05-27T23:42:57.757Z,18.90
2018-05-27T23:45:24.089Z,17.57
2018-05-27T23:47:50.462Z,18.57
2018-05-27T23:50:16.758Z,20.00
2018-05-27T23:52:43.073Z,20.00
2018-05-27T23:55:09.407Z,20.70
2018-05-27T23:57:35.712Z,20.03
